sensor_id;sensor_type;location;lat;lon;timestamp;P1;durP1;ratioP1;P2;durP2;ratioP2
67378;SDS011;54262;44.642;-0.974;2024-02-16T00:00:26;7.10;;;2.78;;
67378;SDS011;54262;44.642;-0.974;2024-02-16T00:02:52;6.82;;;3.35;;
67378;SDS011;54262;44.642;-0.974;2024-02-16T00:05:18;7.63;;;2.65;;
67378;SDS011;54262;44.642;-0.974;2024-02-16T00:07:44;6.35;;;2.70;;
67378;SDS011;54262;44.642;-0.974;2024-02-16T00:10:09;4.55;;;2.67;;
67378;SDS011;54262;44.642;-0.974;2024-02-16T00:12:37;8.52;;;3.25;;
67378;SDS011;54262;44.642;-0.974;2024-02-16T00:15:05;5.97;;;2.58;;
67378;SDS011;54262;44.642;-0.974;2024-02-16T00:17:31;5.60;;;2.40;;
67378;SDS011;54262;44.642;-0.974;2024-02-16T00:19:58;5.35;;;2.50;;
67378;SDS011;54262;44.642;-0.974;2024-02-16T00:22:24;5.25;;;2.38;;
67378;SDS011;54262;44.642;-0.974;2024-02-16T00:24:51;6.43;;;3.05;;
67378;SDS011;54262;44.642;-0.974;2024-02-16T00:27:16;6.07;;;2.83;;
67378;SDS011;54262;44.642;-0.974;2024-02-16T00:29:44;4.80;;;2.80;;
67378;SDS011;54262;44.642;-0.974;2024-02-16T00:32:13;6.88;;;2.80;;
67378;SDS011;54262;44.642;-0.974;2024-02-16T00:34:40;7.20;;;2.75;;
67378;SDS011;54262;44.642;-0.974;2024-02-16T00:37:06;3.97;;;2.25;;
67378;SDS011;54262;44.642;-0.974;2024-02-16T00:39:37;7.43;;;3.08;;
67378;SDS011;54262;44.642;-0.974;2024-02-16T00:42:05;6.40;;;2.13;;
67378;SDS011;54262;44.642;-0.974;2024-02-16T00:44:31;12.13;;;3.10;;
67378;SDS011;54262;44.642;-0.974;2024-02-16T00:46:57;5.95;;;3.58;;
67378;SDS011;54262;44.642;-0.974;2024-02-16T00:49:23;6.38;;;3.00;;
67378;SDS011;54262;44.642;-0.974;2024-02-16T00:51:49;5.18;;;2.60;;
67378;SDS011;54262;44.642;-0.974;2024-02-16T00:54:15;8.85;;;2.80;;
67378;SDS011;54262;44.642;-0.974;2024-02-16T00:56:42;6.00;;;3.17;;
67378;SDS011;54262;44.642;-0.974;2024-02-16T00:59:07;7.43;;;3.00;;
67378;SDS011;54262;44.642;-0.974;2024-02-16T01:01:34;5.43;;;2.50;;
67378;SDS011;54262;44.642;-0.974;2024-02-16T01:04:01;6.20;;;2.80;;
67378;SDS011;54262;44.642;-0.974;2024-02-16T01:06:27;5.78;;;2.85;;
67378;SDS011;54262;44.642;-0.974;2024-02-16T01:08:53;5.15;;;2.60;;
67378;SDS011;54262;44.642;-0.974;2024-02-16T01:11:18;5.38;;;2.72;;
67378;SDS011;54262;44.642;-0.974;2024-02-16T01:13:45;4.22;;;2.58;;
67378;SDS011;54262;44.642;-0.974;2024-02-16T01:16:11;11.90;;;3.25;;
67378;SDS011;54262;44.642;-0.974;2024-02-16T01:18:36;9.05;;;2.92;;
67378;SDS011;54262;44.642;-0.974;2024-02-16T01:21:02;6.78;;;2.72;;
67378;SDS011;54262;44.642;-0.974;2024-02-16T01:23:29;5.95;;;2.55;;
67378;SDS011;54262;44.642;-0.974;2024-02-16T01:25:55;9.02;;;2.88;;
67378;SDS011;54262;44.642;-0.974;2024-02-16T01:28:20;8.50;;;2.67;;
67378;SDS011;54262;44.642;-0.974;2024-02-16T01:30:49;6.85;;;2.47;;
67378;SDS011;54262;44.642;-0.974;2024-02-16T01:33:17;9.02;;;3.25;;
67378;SDS011;54262;44.642;-0.974;2024-02-16T01:35:43;6.78;;;2.67;;
67378;SDS011;54262;44.642;-0.974;2024-02-16T01:38:08;5.57;;;3.00;;
67378;SDS011;54262;44.642;-0.974;2024-02-16T01:40:34;8.32;;;3.00;;
67378;SDS011;54262;44.642;-0.974;2024-02-16T01:43:00;10.23;;;3.30;;
67378;SDS011;54262;44.642;-0.974;2024-02-16T01:45:25;5.05;;;3.05;;
67378;SDS011;54262;44.642;-0.974;2024-02-16T01:47:54;9.95;;;2.65;;
67378;SDS011;54262;44.642;-0.974;2024-02-16T01:50:20;8.70;;;2.83;;
67378;SDS011;54262;44.642;-0.974;2024-02-16T01:52:47;9.55;;;2.53;;
67378;SDS011;54262;44.642;-0.974;2024-02-16T01:55:14;10.38;;;2.80;;
67378;SDS011;54262;44.642;-0.974;2024-02-16T01:57:44;5.30;;;2.30;;
67378;SDS011;54262;44.642;-0.974;2024-02-16T02:00:11;9.05;;;3.00;;
67378;SDS011;54262;44.642;-0.974;2024-02-16T02:02:40;7.80;;;3.28;;
67378;SDS011;54262;44.642;-0.974;2024-02-16T02:05:06;7.18;;;3.03;;
67378;SDS011;54262;44.642;-0.974;2024-02-16T02:07:32;5.70;;;2.90;;
67378;SDS011;54262;44.642;-0.974;2024-02-16T02:09:58;12.13;;;3.58;;
67378;SDS011;54262;44.642;-0.974;2024-02-16T02:12:24;9.50;;;2.55;;
67378;SDS011;54262;44.642;-0.974;2024-02-16T02:14:49;8.07;;;3.15;;
67378;SDS011;54262;44.642;-0.974;2024-02-16T02:17:16;9.77;;;3.38;;
67378;SDS011;54262;44.642;-0.974;2024-02-16T02:19:43;5.95;;;2.60;;
67378;SDS011;54262;44.642;-0.974;2024-02-16T02:22:18;8.32;;;3.13;;
67378;SDS011;54262;44.642;-0.974;2024-02-16T02:24:44;5.50;;;2.53;;
67378;SDS011;54262;44.642;-0.974;2024-02-16T02:27:11;6.25;;;3.03;;
67378;SDS011;54262;44.642;-0.974;2024-02-16T02:29:38;6.38;;;2.55;;
67378;SDS011;54262;44.642;-0.974;2024-02-16T02:32:06;8.18;;;3.20;;
67378;SDS011;54262;44.642;-0.974;2024-02-16T02:34:35;11.73;;;3.20;;
67378;SDS011;54262;44.642;-0.974;2024-02-16T02:37:03;10.18;;;2.85;;
67378;SDS011;54262;44.642;-0.974;2024-02-16T02:39:32;8.52;;;2.97;;
67378;SDS011;54262;44.642;-0.974;2024-02-16T02:41:58;11.82;;;3.38;;
67378;SDS011;54262;44.642;-0.974;2024-02-16T02:44:24;7.82;;;2.95;;
67378;SDS011;54262;44.642;-0.974;2024-02-16T02:46:50;7.43;;;2.70;;
67378;SDS011;54262;44.642;-0.974;2024-02-16T02:49:17;7.40;;;3.17;;
67378;SDS011;54262;44.642;-0.974;2024-02-16T02:51:43;7.70;;;2.85;;
67378;SDS011;54262;44.642;-0.974;2024-02-16T02:54:08;9.30;;;2.72;;
67378;SDS011;54262;44.642;-0.974;2024-02-16T02:56:34;4.80;;;2.28;;
67378;SDS011;54262;44.642;-0.974;2024-02-16T02:59:00;9.00;;;2.80;;
67378;SDS011;54262;44.642;-0.974;2024-02-16T03:01:26;6.47;;;2.65;;
67378;SDS011;54262;44.642;-0.974;2024-02-16T03:03:52;5.68;;;2.70;;
67378;SDS011;54262;44.642;-0.974;2024-02-16T03:06:18;5.00;;;2.30;;
67378;SDS011;54262;44.642;-0.974;2024-02-16T03:08:44;7.43;;;3.20;;
67378;SDS011;54262;44.642;-0.974;2024-02-16T03:11:10;6.07;;;2.70;;
67378;SDS011;54262;44.642;-0.974;2024-02-16T03:13:36;10.15;;;2.85;;
67378;SDS011;54262;44.642;-0.974;2024-02-16T03:16:02;5.93;;;2.88;;
67378;SDS011;54262;44.642;-0.974;2024-02-16T03:18:29;9.82;;;3.38;;
67378;SDS011;54262;44.642;-0.974;2024-02-16T03:20:59;8.50;;;2.58;;
67378;SDS011;54262;44.642;-0.974;2024-02-16T03:23:25;11.10;;;3.05;;
67378;SDS011;54262;44.642;-0.974;2024-02-16T03:25:50;12.05;;;3.55;;
67378;SDS011;54262;44.642;-0.974;2024-02-16T03:28:16;5.75;;;2.80;;
67378;SDS011;54262;44.642;-0.974;2024-02-16T03:30:42;6.72;;;3.17;;
67378;SDS011;54262;44.642;-0.974;2024-02-16T03:33:11;6.50;;;3.05;;
67378;SDS011;54262;44.642;-0.974;2024-02-16T03:35:39;9.60;;;2.83;;
67378;SDS011;54262;44.642;-0.974;2024-02-16T03:38:07;6.55;;;2.35;;
67378;SDS011;54262;44.642;-0.974;2024-02-16T03:40:33;8.68;;;3.08;;
67378;SDS011;54262;44.642;-0.974;2024-02-16T03:42:59;8.02;;;2.78;;
67378;SDS011;54262;44.642;-0.974;2024-02-16T03:45:24;8.80;;;3.80;;
67378;SDS011;54262;44.642;-0.974;2024-02-16T03:47:52;7.63;;;3.40;;
67378;SDS011;54262;44.642;-0.974;2024-02-16T03:50:18;11.00;;;3.70;;
67378;SDS011;54262;44.642;-0.974;2024-02-16T03:52:44;6.15;;;2.90;;
67378;SDS011;54262;44.642;-0.974;2024-02-16T03:55:10;9.32;;;3.15;;
67378;SDS011;54262;44.642;-0.974;2024-02-16T03:57:36;10.32;;;3.28;;
67378;SDS011;54262;44.642;-0.974;2024-02-16T04:00:03;8.88;;;3.10;;
67378;SDS011;54262;44.642;-0.974;2024-02-16T04:02:31;11.25;;;3.22;;
67378;SDS011;54262;44.642;-0.974;2024-02-16T04:04:57;8.90;;;3.25;;
67378;SDS011;54262;44.642;-0.974;2024-02-16T04:07:22;10.23;;;3.20;;
67378;SDS011;54262;44.642;-0.974;2024-02-16T04:09:48;12.13;;;3.25;;
67378;SDS011;54262;44.642;-0.974;2024-02-16T04:12:14;9.48;;;3.08;;
67378;SDS011;54262;44.642;-0.974;2024-02-16T04:14:40;15.07;;;3.35;;
67378;SDS011;54262;44.642;-0.974;2024-02-16T04:17:06;7.57;;;2.83;;
67378;SDS011;54262;44.642;-0.974;2024-02-16T04:19:32;9.48;;;2.92;;
67378;SDS011;54262;44.642;-0.974;2024-02-16T04:21:58;11.52;;;3.15;;
67378;SDS011;54262;44.642;-0.974;2024-02-16T04:24:24;9.75;;;2.72;;
67378;SDS011;54262;44.642;-0.974;2024-02-16T04:26:49;8.05;;;2.90;;
67378;SDS011;54262;44.642;-0.974;2024-02-16T04:29:15;14.73;;;3.92;;
67378;SDS011;54262;44.642;-0.974;2024-02-16T04:31:41;5.38;;;2.78;;
67378;SDS011;54262;44.642;-0.974;2024-02-16T04:34:09;10.25;;;3.33;;
67378;SDS011;54262;44.642;-0.974;2024-02-16T04:36:38;12.63;;;3.70;;
67378;SDS011;54262;44.642;-0.974;2024-02-16T04:39:03;8.68;;;3.50;;
67378;SDS011;54262;44.642;-0.974;2024-02-16T04:41:29;8.45;;;2.97;;
67378;SDS011;54262;44.642;-0.974;2024-02-16T04:43:55;11.23;;;3.50;;
67378;SDS011;54262;44.642;-0.974;2024-02-16T04:46:21;10.68;;;3.75;;
67378;SDS011;54262;44.642;-0.974;2024-02-16T04:48:47;9.10;;;3.03;;
67378;SDS011;54262;44.642;-0.974;2024-02-16T04:51:12;14.27;;;3.30;;
67378;SDS011;54262;44.642;-0.974;2024-02-16T04:53:39;14.70;;;3.63;;
67378;SDS011;54262;44.642;-0.974;2024-02-16T04:56:04;10.05;;;3.65;;
67378;SDS011;54262;44.642;-0.974;2024-02-16T04:58:31;12.05;;;3.42;;
67378;SDS011;54262;44.642;-0.974;2024-02-16T05:00:57;11.48;;;3.30;;
67378;SDS011;54262;44.642;-0.974;2024-02-16T05:03:23;9.70;;;3.45;;
67378;SDS011;54262;44.642;-0.974;2024-02-16T05:05:49;13.38;;;3.25;;
67378;SDS011;54262;44.642;-0.974;2024-02-16T05:08:15;10.23;;;3.45;;
67378;SDS011;54262;44.642;-0.974;2024-02-16T05:10:40;9.32;;;3.35;;
67378;SDS011;54262;44.642;-0.974;2024-02-16T05:13:06;9.70;;;3.38;;
67378;SDS011;54262;44.642;-0.974;2024-02-16T05:15:31;8.38;;;3.40;;
67378;SDS011;54262;44.642;-0.974;2024-02-16T05:17:57;10.57;;;3.33;;
67378;SDS011;54262;44.642;-0.974;2024-02-16T05:20:23;9.10;;;3.10;;
67378;SDS011;54262;44.642;-0.974;2024-02-16T05:22:49;14.98;;;3.63;;
67378;SDS011;54262;44.642;-0.974;2024-02-16T05:25:15;8.15;;;3.35;;
67378;SDS011;54262;44.642;-0.974;2024-02-16T05:27:43;8.77;;;3.28;;
67378;SDS011;54262;44.642;-0.974;2024-02-16T05:30:09;11.40;;;3.60;;
67378;SDS011;54262;44.642;-0.974;2024-02-16T05:32:37;12.40;;;3.65;;
67378;SDS011;54262;44.642;-0.974;2024-02-16T05:35:06;11.45;;;3.42;;
67378;SDS011;54262;44.642;-0.974;2024-02-16T05:37:43;10.18;;;3.40;;
67378;SDS011;54262;44.642;-0.974;2024-02-16T05:40:12;15.40;;;4.28;;
67378;SDS011;54262;44.642;-0.974;2024-02-16T05:42:50;13.15;;;3.72;;
67378;SDS011;54262;44.642;-0.974;2024-02-16T05:45:17;6.75;;;2.88;;
67378;SDS011;54262;44.642;-0.974;2024-02-16T05:47:43;7.53;;;3.10;;
67378;SDS011;54262;44.642;-0.974;2024-02-16T05:50:10;6.63;;;2.83;;
67378;SDS011;54262;44.642;-0.974;2024-02-16T05:52:37;11.98;;;2.72;;
67378;SDS011;54262;44.642;-0.974;2024-02-16T05:55:03;12.57;;;3.58;;
67378;SDS011;54262;44.642;-0.974;2024-02-16T05:57:30;6.70;;;2.38;;
67378;SDS011;54262;44.642;-0.974;2024-02-16T05:59:56;7.07;;;2.53;;
67378;SDS011;54262;44.642;-0.974;2024-02-16T06:02:22;9.98;;;3.28;;
67378;SDS011;54262;44.642;-0.974;2024-02-16T06:04:50;8.05;;;3.45;;
67378;SDS011;54262;44.642;-0.974;2024-02-16T06:07:17;14.45;;;3.58;;
67378;SDS011;54262;44.642;-0.974;2024-02-16T06:09:42;10.88;;;3.38;;
67378;SDS011;54262;44.642;-0.974;2024-02-16T06:12:08;10.32;;;3.25;;
67378;SDS011;54262;44.642;-0.974;2024-02-16T06:14:35;5.13;;;2.88;;
67378;SDS011;54262;44.642;-0.974;2024-02-16T06:17:01;6.28;;;2.70;;
67378;SDS011;54262;44.642;-0.974;2024-02-16T06:19:27;7.53;;;3.03;;
67378;SDS011;54262;44.642;-0.974;2024-02-16T06:21:54;8.13;;;3.15;;
67378;SDS011;54262;44.642;-0.974;2024-02-16T06:24:22;9.82;;;3.25;;
67378;SDS011;54262;44.642;-0.974;2024-02-16T06:26:49;9.35;;;2.78;;
67378;SDS011;54262;44.642;-0.974;2024-02-16T06:29:18;10.18;;;3.30;;
67378;SDS011;54262;44.642;-0.974;2024-02-16T06:31:47;9.82;;;2.78;;
67378;SDS011;54262;44.642;-0.974;2024-02-16T06:34:13;16.38;;;3.75;;
67378;SDS011;54262;44.642;-0.974;2024-02-16T06:36:41;9.68;;;4.00;;
67378;SDS011;54262;44.642;-0.974;2024-02-16T06:39:10;11.32;;;3.58;;
67378;SDS011;54262;44.642;-0.974;2024-02-16T06:41:36;9.70;;;3.28;;
67378;SDS011;54262;44.642;-0.974;2024-02-16T06:44:02;8.73;;;3.00;;
67378;SDS011;54262;44.642;-0.974;2024-02-16T06:46:29;11.85;;;4.00;;
67378;SDS011;54262;44.642;-0.974;2024-02-16T06:48:55;10.93;;;3.50;;
67378;SDS011;54262;44.642;-0.974;2024-02-16T06:51:24;15.85;;;3.85;;
67378;SDS011;54262;44.642;-0.974;2024-02-16T06:53:51;9.60;;;3.30;;
67378;SDS011;54262;44.642;-0.974;2024-02-16T06:56:17;6.65;;;3.15;;
67378;SDS011;54262;44.642;-0.974;2024-02-16T06:58:44;10.23;;;3.03;;
67378;SDS011;54262;44.642;-0.974;2024-02-16T07:01:10;7.25;;;2.38;;
67378;SDS011;54262;44.642;-0.974;2024-02-16T07:03:37;10.50;;;3.67;;
67378;SDS011;54262;44.642;-0.974;2024-02-16T07:06:03;11.00;;;3.22;;
67378;SDS011;54262;44.642;-0.974;2024-02-16T07:08:32;9.95;;;3.17;;
67378;SDS011;54262;44.642;-0.974;2024-02-16T07:10:58;12.65;;;3.92;;
67378;SDS011;54262;44.642;-0.974;2024-02-16T07:13:24;5.65;;;2.95;;
67378;SDS011;54262;44.642;-0.974;2024-02-16T07:15:49;9.25;;;2.55;;
67378;SDS011;54262;44.642;-0.974;2024-02-16T07:18:15;16.67;;;4.28;;
67378;SDS011;54262;44.642;-0.974;2024-02-16T07:20:41;11.00;;;3.50;;
67378;SDS011;54262;44.642;-0.974;2024-02-16T07:23:07;12.00;;;3.55;;
67378;SDS011;54262;44.642;-0.974;2024-02-16T07:25:34;8.07;;;2.60;;
67378;SDS011;54262;44.642;-0.974;2024-02-16T07:28:00;12.80;;;3.83;;
67378;SDS011;54262;44.642;-0.974;2024-02-16T07:30:26;19.00;;;3.28;;
67378;SDS011;54262;44.642;-0.974;2024-02-16T07:32:51;17.17;;;4.20;;
67378;SDS011;54262;44.642;-0.974;2024-02-16T07:35:17;14.27;;;3.25;;
67378;SDS011;54262;44.642;-0.974;2024-02-16T07:37:46;18.45;;;3.67;;
67378;SDS011;54262;44.642;-0.974;2024-02-16T07:40:15;20.35;;;3.92;;
67378;SDS011;54262;44.642;-0.974;2024-02-16T07:42:41;21.92;;;4.00;;
67378;SDS011;54262;44.642;-0.974;2024-02-16T07:45:07;19.85;;;4.22;;
67378;SDS011;54262;44.642;-0.974;2024-02-16T07:47:34;27.65;;;4.28;;
67378;SDS011;54262;44.642;-0.974;2024-02-16T07:50:00;19.88;;;3.92;;
67378;SDS011;54262;44.642;-0.974;2024-02-16T07:52:26;11.10;;;3.25;;
67378;SDS011;54262;44.642;-0.974;2024-02-16T07:54:52;12.82;;;3.30;;
67378;SDS011;54262;44.642;-0.974;2024-02-16T07:57:17;8.00;;;2.90;;
67378;SDS011;54262;44.642;-0.974;2024-02-16T07:59:43;8.50;;;3.22;;
67378;SDS011;54262;44.642;-0.974;2024-02-16T08:02:09;8.85;;;3.42;;
67378;SDS011;54262;44.642;-0.974;2024-02-16T08:04:35;31.67;;;4.72;;
67378;SDS011;54262;44.642;-0.974;2024-02-16T08:07:00;17.52;;;4.13;;
67378;SDS011;54262;44.642;-0.974;2024-02-16T08:09:26;7.70;;;2.83;;
67378;SDS011;54262;44.642;-0.974;2024-02-16T08:11:52;10.00;;;3.40;;
67378;SDS011;54262;44.642;-0.974;2024-02-16T08:14:18;7.80;;;3.03;;
67378;SDS011;54262;44.642;-0.974;2024-02-16T08:16:44;12.73;;;4.80;;
67378;SDS011;54262;44.642;-0.974;2024-02-16T08:19:10;14.82;;;3.63;;
67378;SDS011;54262;44.642;-0.974;2024-02-16T08:21:38;12.98;;;4.07;;
67378;SDS011;54262;44.642;-0.974;2024-02-16T08:24:04;28.15;;;4.90;;
67378;SDS011;54262;44.642;-0.974;2024-02-16T08:26:30;21.42;;;4.28;;
67378;SDS011;54262;44.642;-0.974;2024-02-16T08:28:56;17.73;;;4.00;;
67378;SDS011;54262;44.642;-0.974;2024-02-16T08:31:22;26.80;;;6.45;;
67378;SDS011;54262;44.642;-0.974;2024-02-16T08:33:50;28.75;;;5.40;;
67378;SDS011;54262;44.642;-0.974;2024-02-16T08:36:16;26.20;;;5.05;;
67378;SDS011;54262;44.642;-0.974;2024-02-16T08:38:44;18.58;;;4.80;;
67378;SDS011;54262;44.642;-0.974;2024-02-16T08:41:12;15.30;;;3.97;;
67378;SDS011;54262;44.642;-0.974;2024-02-16T08:43:38;24.05;;;5.18;;
67378;SDS011;54262;44.642;-0.974;2024-02-16T08:46:04;22.75;;;4.47;;
67378;SDS011;54262;44.642;-0.974;2024-02-16T08:48:30;17.33;;;4.18;;
67378;SDS011;54262;44.642;-0.974;2024-02-16T08:50:55;18.38;;;4.18;;
67378;SDS011;54262;44.642;-0.974;2024-02-16T08:53:21;12.48;;;3.85;;
67378;SDS011;54262;44.642;-0.974;2024-02-16T08:55:47;26.55;;;4.78;;
67378;SDS011;54262;44.642;-0.974;2024-02-16T08:58:13;25.50;;;5.47;;
67378;SDS011;54262;44.642;-0.974;2024-02-16T09:00:39;18.10;;;3.50;;
67378;SDS011;54262;44.642;-0.974;2024-02-16T09:03:04;33.63;;;5.05;;
67378;SDS011;54262;44.642;-0.974;2024-02-16T09:05:31;33.10;;;5.78;;
67378;SDS011;54262;44.642;-0.974;2024-02-16T09:07:57;28.85;;;6.05;;
67378;SDS011;54262;44.642;-0.974;2024-02-16T09:10:22;35.28;;;6.03;;
67378;SDS011;54262;44.642;-0.974;2024-02-16T09:12:48;17.70;;;4.55;;
67378;SDS011;54262;44.642;-0.974;2024-02-16T09:15:14;38.22;;;5.90;;
67378;SDS011;54262;44.642;-0.974;2024-02-16T09:17:40;21.48;;;4.18;;
67378;SDS011;54262;44.642;-0.974;2024-02-16T09:20:06;26.52;;;4.95;;
67378;SDS011;54262;44.642;-0.974;2024-02-16T09:22:33;29.52;;;4.82;;
67378;SDS011;54262;44.642;-0.974;2024-02-16T09:24:59;24.75;;;4.22;;
67378;SDS011;54262;44.642;-0.974;2024-02-16T09:27:25;26.02;;;4.32;;
67378;SDS011;54262;44.642;-0.974;2024-02-16T09:29:51;31.05;;;4.28;;
67378;SDS011;54262;44.642;-0.974;2024-02-16T09:32:17;17.45;;;3.75;;
67378;SDS011;54262;44.642;-0.974;2024-02-16T09:34:43;9.57;;;3.50;;
67378;SDS011;54262;44.642;-0.974;2024-02-16T09:37:08;23.83;;;4.07;;
67378;SDS011;54262;44.642;-0.974;2024-02-16T09:39:36;21.33;;;4.63;;
67378;SDS011;54262;44.642;-0.974;2024-02-16T09:42:04;9.55;;;3.42;;
67378;SDS011;54262;44.642;-0.974;2024-02-16T09:44:30;19.10;;;4.38;;
67378;SDS011;54262;44.642;-0.974;2024-02-16T09:46:57;20.90;;;3.35;;
67378;SDS011;54262;44.642;-0.974;2024-02-16T09:49:26;23.00;;;4.30;;
67378;SDS011;54262;44.642;-0.974;2024-02-16T09:51:52;24.50;;;4.70;;
67378;SDS011;54262;44.642;-0.974;2024-02-16T09:54:20;25.67;;;4.30;;
67378;SDS011;54262;44.642;-0.974;2024-02-16T09:56:45;26.60;;;4.40;;
67378;SDS011;54262;44.642;-0.974;2024-02-16T09:59:12;7.20;;;2.72;;
67378;SDS011;54262;44.642;-0.974;2024-02-16T10:01:37;25.77;;;3.90;;
67378;SDS011;54262;44.642;-0.974;2024-02-16T10:04:06;33.95;;;5.07;;
67378;SDS011;54262;44.642;-0.974;2024-02-16T10:06:47;13.50;;;3.35;;
67378;SDS011;54262;44.642;-0.974;2024-02-16T10:09:22;16.40;;;3.92;;
67378;SDS011;54262;44.642;-0.974;2024-02-16T10:11:48;16.45;;;3.60;;
67378;SDS011;54262;44.642;-0.974;2024-02-16T10:14:14;12.63;;;3.35;;
67378;SDS011;54262;44.642;-0.974;2024-02-16T10:16:40;25.88;;;5.20;;
67378;SDS011;54262;44.642;-0.974;2024-02-16T10:19:06;13.70;;;3.75;;
67378;SDS011;54262;44.642;-0.974;2024-02-16T10:21:35;20.33;;;4.10;;
67378;SDS011;54262;44.642;-0.974;2024-02-16T10:26:28;15.77;;;3.55;;
67378;SDS011;54262;44.642;-0.974;2024-02-16T10:28:55;20.40;;;3.90;;
67378;SDS011;54262;44.642;-0.974;2024-02-16T10:31:24;12.95;;;4.15;;
67378;SDS011;54262;44.642;-0.974;2024-02-16T10:33:58;11.13;;;3.20;;
67378;SDS011;54262;44.642;-0.974;2024-02-16T10:36:27;11.70;;;3.22;;
67378;SDS011;54262;44.642;-0.974;2024-02-16T10:38:53;21.55;;;4.38;;
67378;SDS011;54262;44.642;-0.974;2024-02-16T10:41:26;12.98;;;3.05;;
67378;SDS011;54262;44.642;-0.974;2024-02-16T10:43:58;9.07;;;3.50;;
67378;SDS011;54262;44.642;-0.974;2024-02-16T10:46:24;19.15;;;3.22;;
67378;SDS011;54262;44.642;-0.974;2024-02-16T10:48:50;24.90;;;3.63;;
67378;SDS011;54262;44.642;-0.974;2024-02-16T10:51:17;5.97;;;2.80;;
67378;SDS011;54262;44.642;-0.974;2024-02-16T10:53:59;11.63;;;3.40;;
67378;SDS011;54262;44.642;-0.974;2024-02-16T10:56:35;23.02;;;3.88;;
67378;SDS011;54262;44.642;-0.974;2024-02-16T10:59:09;20.55;;;4.05;;
67378;SDS011;54262;44.642;-0.974;2024-02-16T11:01:39;14.50;;;3.10;;
67378;SDS011;54262;44.642;-0.974;2024-02-16T11:04:11;23.25;;;4.60;;
67378;SDS011;54262;44.642;-0.974;2024-02-16T11:09:25;11.70;;;3.80;;
67378;SDS011;54262;44.642;-0.974;2024-02-16T11:12:12;11.65;;;3.92;;
67378;SDS011;54262;44.642;-0.974;2024-02-16T11:14:41;9.63;;;2.75;;
67378;SDS011;54262;44.642;-0.974;2024-02-16T11:17:15;11.90;;;4.25;;
67378;SDS011;54262;44.642;-0.974;2024-02-16T11:19:46;18.27;;;3.38;;
67378;SDS011;54262;44.642;-0.974;2024-02-16T11:22:19;18.67;;;3.47;;
67378;SDS011;54262;44.642;-0.974;2024-02-16T11:24:49;21.83;;;2.58;;
67378;SDS011;54262;44.642;-0.974;2024-02-16T11:27:17;19.00;;;3.85;;
67378;SDS011;54262;44.642;-0.974;2024-02-16T11:29:47;11.27;;;2.85;;
67378;SDS011;54262;44.642;-0.974;2024-02-16T11:32:14;19.10;;;3.83;;
67378;SDS011;54262;44.642;-0.974;2024-02-16T11:34:39;8.70;;;2.85;;
67378;SDS011;54262;44.642;-0.974;2024-02-16T11:37:05;13.73;;;3.55;;
67378;SDS011;54262;44.642;-0.974;2024-02-16T11:39:31;16.88;;;3.67;;
67378;SDS011;54262;44.642;-0.974;2024-02-16T11:44:38;16.83;;;3.72;;
67378;SDS011;54262;44.642;-0.974;2024-02-16T11:47:05;12.30;;;3.05;;
67378;SDS011;54262;44.642;-0.974;2024-02-16T11:49:40;11.52;;;2.90;;
67378;SDS011;54262;44.642;-0.974;2024-02-16T11:52:05;10.98;;;3.40;;
67378;SDS011;54262;44.642;-0.974;2024-02-16T11:54:32;9.15;;;2.65;;
67378;SDS011;54262;44.642;-0.974;2024-02-16T11:56:58;10.15;;;2.72;;
67378;SDS011;54262;44.642;-0.974;2024-02-16T11:59:24;7.55;;;3.63;;
67378;SDS011;54262;44.642;-0.974;2024-02-16T12:01:51;9.57;;;2.53;;
67378;SDS011;54262;44.642;-0.974;2024-02-16T12:04:22;11.90;;;2.97;;
67378;SDS011;54262;44.642;-0.974;2024-02-16T12:06:50;12.10;;;2.42;;
67378;SDS011;54262;44.642;-0.974;2024-02-16T12:09:26;7.38;;;2.55;;
67378;SDS011;54262;44.642;-0.974;2024-02-16T12:11:52;10.20;;;3.10;;
67378;SDS011;54262;44.642;-0.974;2024-02-16T12:14:21;10.70;;;2.90;;
67378;SDS011;54262;44.642;-0.974;2024-02-16T12:16:51;12.50;;;3.83;;
67378;SDS011;54262;44.642;-0.974;2024-02-16T12:19:20;11.00;;;3.50;;
67378;SDS011;54262;44.642;-0.974;2024-02-16T12:21:53;11.75;;;2.88;;
67378;SDS011;54262;44.642;-0.974;2024-02-16T12:24:20;12.23;;;2.83;;
67378;SDS011;54262;44.642;-0.974;2024-02-16T12:26:47;10.80;;;3.60;;
67378;SDS011;54262;44.642;-0.974;2024-02-16T12:29:12;7.65;;;2.30;;
67378;SDS011;54262;44.642;-0.974;2024-02-16T12:31:42;10.55;;;3.33;;
67378;SDS011;54262;44.642;-0.974;2024-02-16T12:34:09;13.48;;;3.17;;
67378;SDS011;54262;44.642;-0.974;2024-02-16T12:36:35;12.02;;;2.40;;
67378;SDS011;54262;44.642;-0.974;2024-02-16T12:39:03;8.70;;;2.50;;
67378;SDS011;54262;44.642;-0.974;2024-02-16T12:41:38;6.95;;;3.42;;
67378;SDS011;54262;44.642;-0.974;2024-02-16T12:44:06;7.47;;;2.45;;
67378;SDS011;54262;44.642;-0.974;2024-02-16T12:46:34;8.38;;;2.50;;
67378;SDS011;54262;44.642;-0.974;2024-02-16T12:49:00;7.32;;;2.30;;
67378;SDS011;54262;44.642;-0.974;2024-02-16T12:51:26;8.45;;;2.30;;
67378;SDS011;54262;44.642;-0.974;2024-02-16T12:53:51;13.05;;;2.65;;
67378;SDS011;54262;44.642;-0.974;2024-02-16T12:56:17;9.65;;;2.58;;
67378;SDS011;54262;44.642;-0.974;2024-02-16T12:58:43;3.63;;;1.48;;
67378;SDS011;54262;44.642;-0.974;2024-02-16T13:01:09;3.70;;;1.70;;
67378;SDS011;54262;44.642;-0.974;2024-02-16T13:03:36;3.10;;;1.92;;
67378;SDS011;54262;44.642;-0.974;2024-02-16T13:06:03;9.15;;;2.25;;
67378;SDS011;54262;44.642;-0.974;2024-02-16T13:08:29;5.07;;;2.13;;
67378;SDS011;54262;44.642;-0.974;2024-02-16T13:10:57;4.72;;;2.03;;
67378;SDS011;54262;44.642;-0.974;2024-02-16T13:13:23;9.05;;;1.95;;
67378;SDS011;54262;44.642;-0.974;2024-02-16T13:15:49;5.50;;;1.55;;
67378;SDS011;54262;44.642;-0.974;2024-02-16T13:18:15;3.53;;;1.27;;
67378;SDS011;54262;44.642;-0.974;2024-02-16T13:20:42;4.63;;;2.00;;
67378;SDS011;54262;44.642;-0.974;2024-02-16T13:23:08;4.20;;;2.20;;
67378;SDS011;54262;44.642;-0.974;2024-02-16T13:25:34;5.35;;;2.28;;
67378;SDS011;54262;44.642;-0.974;2024-02-16T13:28:01;10.88;;;2.92;;
67378;SDS011;54262;44.642;-0.974;2024-02-16T13:30:27;3.30;;;1.77;;
67378;SDS011;54262;44.642;-0.974;2024-02-16T13:32:53;5.63;;;2.17;;
67378;SDS011;54262;44.642;-0.974;2024-02-16T13:35:19;4.97;;;1.70;;
67378;SDS011;54262;44.642;-0.974;2024-02-16T13:37:45;13.02;;;2.47;;
67378;SDS011;54262;44.642;-0.974;2024-02-16T13:40:10;10.85;;;3.00;;
67378;SDS011;54262;44.642;-0.974;2024-02-16T13:42:40;6.68;;;2.22;;
67378;SDS011;54262;44.642;-0.974;2024-02-16T13:45:08;8.57;;;2.13;;
67378;SDS011;54262;44.642;-0.974;2024-02-16T13:47:37;18.92;;;3.33;;
67378;SDS011;54262;44.642;-0.974;2024-02-16T13:50:06;10.32;;;2.88;;
67378;SDS011;54262;44.642;-0.974;2024-02-16T13:52:32;7.05;;;1.75;;
67378;SDS011;54262;44.642;-0.974;2024-02-16T13:54:59;5.00;;;2.42;;
67378;SDS011;54262;44.642;-0.974;2024-02-16T13:57:25;4.85;;;1.80;;
67378;SDS011;54262;44.642;-0.974;2024-02-16T13:59:50;6.80;;;2.17;;
67378;SDS011;54262;44.642;-0.974;2024-02-16T14:02:16;13.90;;;2.72;;
67378;SDS011;54262;44.642;-0.974;2024-02-16T14:04:42;7.35;;;2.53;;
67378;SDS011;54262;44.642;-0.974;2024-02-16T14:07:08;14.65;;;2.25;;
67378;SDS011;54262;44.642;-0.974;2024-02-16T14:09:35;7.30;;;2.15;;
67378;SDS011;54262;44.642;-0.974;2024-02-16T14:12:00;4.18;;;1.90;;
67378;SDS011;54262;44.642;-0.974;2024-02-16T14:14:26;3.28;;;1.80;;
67378;SDS011;54262;44.642;-0.974;2024-02-16T14:16:52;10.95;;;2.00;;
67378;SDS011;54262;44.642;-0.974;2024-02-16T14:19:18;5.25;;;2.00;;
67378;SDS011;54262;44.642;-0.974;2024-02-16T14:21:44;8.45;;;2.42;;
67378;SDS011;54262;44.642;-0.974;2024-02-16T14:24:10;7.18;;;1.90;;
67378;SDS011;54262;44.642;-0.974;2024-02-16T14:26:36;8.93;;;2.85;;
67378;SDS011;54262;44.642;-0.974;2024-02-16T14:29:03;8.07;;;2.03;;
67378;SDS011;54262;44.642;-0.974;2024-02-16T14:31:29;13.95;;;3.05;;
67378;SDS011;54262;44.642;-0.974;2024-02-16T14:33:55;7.63;;;2.38;;